Search for airport 
image banner adimage banner ad
image banner ad

SVHA - Avil

Located in Pajaritos, Venezuela

ICAO - SVHA, IATA -

Data provided by Airmate  

General information

Coordinates: N10°28'48" W66°42'26"
Elevation is 1098 feet MSL.
 
View others Airports in Bolívar

Operational data

Open for public use
Current time UTC:
Current local time:
METAR: SVFM 290102Z AUTO 00000KT NCD 24/19 Q1013
View NOTAMs / SUP AIP / TFR affecting this airport [VIEW]
Communications frequencies: [VIEW]

Runways:

Airport contact information

Address: Pajaritos Venezuela

Satellite view of SVHA